Time;durP1;ratioP1;P1;durP2;ratioP2;P2;SDS_P1;SDS_P2;PMS_P1;PMS_P2;Temp;Humidity;BMP_temperature;BMP_pressure;BME280_temperature;BME280_humidity;BME280_pressure;Samples;Min_cycle;Max_cycle;Signal;HPM_P1;HPM_P2
2022/04/28 00:00:01;;;;;;;4.38;1.00;;;4.70;99.90;;;;;;5096333;28;20485;-73
2022/04/28 00:02:26;;;;;;;5.78;1.08;;;4.60;99.90;;;;;;5097171;28;20031;-73
2022/04/28 00:04:52;;;;;;;4.55;1.02;;;4.60;99.90;;;;;;5096160;28;20459;-73
2022/04/28 00:07:18;;;;;;;5.97;0.90;;;4.50;99.90;;;;;;5096559;28;20028;-73
2022/04/28 00:09:43;;;;;;;4.07;1.00;;;4.50;99.90;;;;;;5096642;28;20040;-73
2022/04/28 00:12:10;;;;;;;8.70;1.23;;;4.50;99.90;;;;;;5096648;28;20032;-73
2022/04/28 00:14:37;;;;;;;8.02;1.17;;;4.50;99.90;;;;;;5097074;28;20396;-73
2022/04/28 00:17:05;;;;;;;4.32;0.70;;;4.50;99.90;;;;;;5096640;28;20107;-73
2022/04/28 00:19:30;;;;;;;7.18;1.00;;;4.50;99.90;;;;;;5096814;28;20040;-73
2022/04/28 00:21:56;;;;;;;4.25;0.85;;;4.50;99.90;;;;;;5096559;28;20035;-72
2022/04/28 00:24:21;;;;;;;2.03;1.10;;;4.50;99.90;;;;;;5096927;28;20032;-72
2022/04/28 00:26:47;;;;;;;5.53;1.15;;;4.50;99.90;;;;;;5096541;28;20068;-72
2022/04/28 00:29:13;;;;;;;3.35;0.82;;;4.50;99.90;;;;;;5096625;28;20032;-73
2022/04/28 00:31:38;;;;;;;5.57;0.98;;;4.50;99.90;;;;;;5096300;28;20028;-73
2022/04/28 00:34:04;;;;;;;4.85;1.40;;;4.50;99.90;;;;;;5096141;28;20431;-73
2022/04/28 00:36:30;;;;;;;4.97;1.25;;;4.50;99.90;;;;;;5096211;28;20111;-72
2022/04/28 00:38:56;;;;;;;5.03;1.02;;;4.50;99.90;;;;;;5095126;28;20460;-72
2022/04/28 00:41:21;;;;;;;4.15;0.65;;;4.60;99.90;;;;;;5096000;28;20093;-73
2022/04/28 00:43:49;;;;;;;5.68;1.48;;;4.60;99.90;;;;;;5096091;28;20044;-73
2022/04/28 00:46:14;;;;;;;4.18;0.70;;;4.50;99.90;;;;;;5094607;28;20036;-73
2022/04/28 00:51:25;;;;;;;4.45;1.20;;;4.60;99.90;;;;;;5096576;28;20027;-72
2022/04/28 00:53:51;;;;;;;7.25;1.50;;;4.50;99.90;;;;;;5095851;28;20541;-72
2022/04/28 00:56:17;;;;;;;5.05;0.85;;;4.50;99.90;;;;;;5094640;28;20076;-73
2022/04/28 00:58:43;;;;;;;7.60;0.93;;;4.50;99.90;;;;;;5095687;28;20063;-73
2022/04/28 01:01:09;;;;;;;3.47;0.90;;;4.50;99.90;;;;;;5096136;28;20108;-73
2022/04/28 01:03:35;;;;;;;2.95;1.52;;;4.50;99.90;;;;;;5095743;28;20024;-73
2022/04/28 01:06:04;;;;;;;4.90;1.38;;;4.50;99.90;;;;;;5096589;28;20035;-73
2022/04/28 01:08:30;;;;;;;4.68;1.10;;;4.50;99.90;;;;;;5094933;28;20024;-73
2022/04/28 01:10:56;;;;;;;6.85;1.48;;;4.40;99.90;;;;;;5094226;28;20059;-73
2022/04/28 01:13:22;;;;;;;6.78;1.90;;;4.40;99.90;;;;;;5094158;28;20031;-73
2022/04/28 01:15:49;;;;;;;9.23;1.92;;;4.50;99.90;;;;;;5094026;28;20040;-73
2022/04/28 01:18:16;;;;;;;7.90;1.67;;;4.50;99.90;;;;;;5095427;28;20032;-73
2022/04/28 01:20:42;;;;;;;5.65;1.23;;;4.40;99.90;;;;;;5095251;28;20024;-73
2022/04/28 01:23:09;;;;;;;6.70;1.70;;;4.40;99.90;;;;;;5094007;28;20042;-72
2022/04/28 01:25:34;;;;;;;5.43;1.60;;;4.50;99.90;;;;;;5093693;28;20044;-72
2022/04/28 01:28:00;;;;;;;3.35;1.52;;;4.40;99.90;;;;;;5094979;28;20036;-72
2022/04/28 01:30:26;;;;;;;5.85;2.38;;;4.40;99.90;;;;;;5094944;28;20029;-72
2022/04/28 01:32:53;;;;;;;7.90;2.47;;;4.40;99.90;;;;;;5094882;28;20032;-72
2022/04/28 01:35:19;;;;;;;5.72;2.13;;;4.40;99.90;;;;;;5093561;28;20028;-72
2022/04/28 01:37:44;;;;;;;8.13;1.73;;;4.50;99.90;;;;;;5094861;28;20031;-72
2022/04/28 01:40:14;;;;;;;5.38;1.80;;;4.40;99.90;;;;;;5095059;28;20032;-72
2022/04/28 01:42:43;;;;;;;8.57;1.70;;;4.40;99.90;;;;;;5093404;28;20434;-72
2022/04/28 01:45:09;;;;;;;4.93;1.65;;;4.50;99.90;;;;;;5093514;28;20028;-73
2022/04/28 01:47:36;;;;;;;7.57;2.15;;;4.50;99.90;;;;;;5093480;28;20071;-73
2022/04/28 01:50:03;;;;;;;6.97;1.65;;;4.50;99.90;;;;;;5094957;28;20024;-73
2022/04/28 01:55:14;;;;;;;7.03;1.70;;;4.40;99.90;;;;;;5095414;28;20145;-73
2022/04/28 01:57:39;;;;;;;6.03;1.73;;;4.40;99.90;;;;;;5093126;28;20056;-73
2022/04/28 02:00:07;;;;;;;7.95;1.60;;;4.30;99.90;;;;;;5094820;28;20050;-73
2022/04/28 02:02:34;;;;;;;11.93;2.25;;;4.30;99.90;;;;;;5093398;28;20028;-73
2022/04/28 02:05:00;;;;;;;8.43;2.00;;;4.30;99.90;;;;;;5094999;28;20465;-72
2022/04/28 02:07:26;;;;;;;8.63;2.70;;;4.30;99.90;;;;;;5094923;28;20105;-72
2022/04/28 02:09:51;;;;;;;9.85;1.92;;;4.20;99.90;;;;;;5094640;28;20032;-73
2022/04/28 02:12:17;;;;;;;5.20;1.88;;;4.20;99.90;;;;;;5095077;28;20024;-73
2022/04/28 02:14:43;;;;;;;6.18;1.88;;;4.10;99.90;;;;;;5094723;28;20542;-72
2022/04/28 02:17:09;;;;;;;6.15;2.22;;;4.10;99.90;;;;;;5094515;28;20440;-73
2022/04/28 02:19:35;;;;;;;9.65;2.10;;;4.00;99.90;;;;;;5094065;28;20024;-73
2022/04/28 02:22:02;;;;;;;6.65;2.10;;;4.00;99.90;;;;;;5094651;28;20036;-73
2022/04/28 02:24:27;;;;;;;12.27;2.63;;;4.00;99.90;;;;;;5094550;28;20032;-73
2022/04/28 02:26:53;;;;;;;10.75;1.73;;;3.90;99.90;;;;;;5093255;28;20393;-73
2022/04/28 02:29:19;;;;;;;9.10;2.35;;;3.90;99.90;;;;;;5094623;28;20031;-73
2022/04/28 02:31:47;;;;;;;10.38;3.20;;;3.90;99.90;;;;;;5092473;28;20039;-73
2022/04/28 02:34:13;;;;;;;9.32;2.33;;;3.90;99.90;;;;;;5094108;28;20040;-73
2022/04/28 02:36:38;;;;;;;8.88;2.30;;;3.90;99.90;;;;;;5093782;28;20035;-73
2022/04/28 02:39:04;;;;;;;9.65;2.88;;;3.90;99.90;;;;;;5094298;28;20510;-73
2022/04/28 02:41:30;;;;;;;9.55;2.65;;;3.80;99.90;;;;;;5093720;28;20028;-73
2022/04/28 02:43:55;;;;;;;8.57;2.40;;;3.80;99.90;;;;;;5093835;28;20044;-73
2022/04/28 02:46:21;;;;;;;11.23;2.20;;;3.80;99.90;;;;;;5094349;28;20043;-73
2022/04/28 02:48:46;;;;;;;5.18;1.90;;;3.80;99.90;;;;;;5093820;28;20397;-73
2022/04/28 02:51:12;;;;;;;10.48;2.38;;;3.90;99.90;;;;;;5093739;28;20079;-73
2022/04/28 02:53:38;;;;;;;8.32;3.13;;;3.80;99.90;;;;;;5093426;28;20032;-73
2022/04/28 02:56:04;;;;;;;14.80;2.53;;;3.80;99.90;;;;;;5093486;28;20032;-73
2022/04/28 02:58:32;;;;;;;13.60;3.28;;;3.80;99.90;;;;;;5093605;28;20400;-73
2022/04/28 03:00:58;;;;;;;12.77;2.80;;;3.80;99.90;;;;;;5093871;28;20043;-73
2022/04/28 03:03:23;;;;;;;7.85;2.58;;;3.80;99.90;;;;;;5093631;28;20036;-73
2022/04/28 03:11:17;;;;;;;7.70;3.00;;;3.80;99.90;;;;;;5094105;28;20388;-72
2022/04/28 03:13:42;;;;;;;11.50;3.22;;;3.80;99.90;;;;;;5092472;28;20024;-73
2022/04/28 03:16:08;;;;;;;9.43;2.85;;;3.80;99.90;;;;;;5093842;28;20081;-73
2022/04/28 03:18:34;;;;;;;10.93;3.70;;;3.80;99.90;;;;;;5092144;28;20031;-72
2022/04/28 03:20:59;;;;;;;5.00;2.35;;;3.80;99.90;;;;;;5092089;28;20402;-72
2022/04/28 03:23:25;;;;;;;8.50;2.70;;;3.80;99.90;;;;;;5092331;28;20036;-72
2022/04/28 03:25:51;;;;;;;9.48;2.83;;;3.80;99.90;;;;;;5093345;28;20110;-72
2022/04/28 03:28:21;;;;;;;7.30;2.33;;;3.80;99.90;;;;;;5092096;28;20028;-72
2022/04/28 03:30:47;;;;;;;7.78;3.22;;;3.80;99.90;;;;;;5094814;28;20039;-72
2022/04/28 03:33:14;;;;;;;13.23;3.65;;;3.70;99.90;;;;;;5097977;28;20032;-73
2022/04/28 03:35:40;;;;;;;10.90;3.53;;;3.80;99.90;;;;;;5096012;28;20511;-73
2022/04/28 03:38:09;;;;;;;10.07;2.70;;;3.70;99.90;;;;;;5096037;28;20024;-73
2022/04/28 03:40:35;;;;;;;12.00;3.47;;;3.80;99.90;;;;;;5097602;28;20054;-73
2022/04/28 03:43:01;;;;;;;13.70;3.08;;;3.70;99.90;;;;;;5097052;28;20028;-73
2022/04/28 03:45:26;;;;;;;8.77;3.30;;;3.70;99.90;;;;;;5097620;28;20111;-73
2022/04/28 03:47:52;;;;;;;8.10;3.40;;;3.70;99.90;;;;;;5096793;28;20084;-72
2022/04/28 03:50:17;;;;;;;9.88;3.35;;;3.70;99.90;;;;;;5096892;28;20024;-72
2022/04/28 03:52:43;;;;;;;7.70;2.58;;;3.70;99.90;;;;;;5095516;28;20027;-72
2022/04/28 03:55:09;;;;;;;13.55;3.53;;;3.70;99.90;;;;;;5097236;28;20027;-72
2022/04/28 03:57:36;;;;;;;11.45;3.90;;;3.60;99.90;;;;;;5097009;28;20040;-72
2022/04/28 04:00:04;;;;;;;10.45;2.88;;;3.60;99.90;;;;;;5097098;28;20032;-72
2022/04/28 04:02:30;;;;;;;14.45;3.25;;;3.50;99.90;;;;;;5095339;28;20031;-72
2022/04/28 04:04:55;;;;;;;7.05;3.17;;;3.40;99.90;;;;;;5096744;28;20553;-72
2022/04/28 04:07:21;;;;;;;13.70;3.88;;;3.50;99.90;;;;;;5096677;28;20056;-72
2022/04/28 04:09:46;;;;;;;13.20;4.07;;;3.40;99.90;;;;;;5096633;28;20024;-72
2022/04/28 04:12:12;;;;;;;12.35;3.67;;;3.40;99.90;;;;;;5095191;28;20032;-72
2022/04/28 04:14:38;;;;;;;6.68;2.70;;;3.40;99.90;;;;;;5095360;28;20500;-72
2022/04/28 04:17:04;;;;;;;13.00;3.30;;;3.40;99.90;;;;;;5096832;28;20040;-72
2022/04/28 04:19:30;;;;;;;10.98;3.03;;;4.70;99.90;;;;;;5096533;28;20027;-72
2022/04/28 04:21:56;;;;;;;9.65;3.28;;;3.30;99.90;;;;;;5096536;28;20036;-72
2022/04/28 04:24:21;;;;;;;17.13;4.03;;;3.30;99.90;;;;;;5096742;28;20461;-72
2022/04/28 04:26:47;;;;;;;12.50;4.72;;;3.30;99.90;;;;;;5095978;28;20040;-73
2022/04/28 04:29:12;;;;;;;11.35;4.32;;;3.30;99.90;;;;;;5096321;28;20032;-73
2022/04/28 04:34:23;;;;;;;10.48;3.72;;;3.40;99.90;;;;;;5096467;28;20092;-72
2022/04/28 04:36:48;;;;;;;11.15;3.63;;;3.40;99.90;;;;;;5096494;28;20382;-72
2022/04/28 04:39:14;;;;;;;9.35;3.50;;;3.40;99.90;;;;;;5096050;28;20028;-72
2022/04/28 04:41:40;;;;;;;12.30;3.47;;;3.50;99.90;;;;;;5095771;28;20115;-72
2022/04/28 04:44:12;;;;;;;9.85;2.70;;;3.50;99.90;;;;;;5094300;28;20074;-72
2022/04/28 04:46:38;;;;;;;9.93;3.75;;;3.60;99.90;;;;;;5096279;28;20050;-72
2022/04/28 04:49:04;;;;;;;9.73;3.15;;;3.60;99.90;;;;;;5095923;28;20397;-72
2022/04/28 04:51:29;;;;;;;6.40;2.80;;;3.70;99.90;;;;;;5096095;28;20040;-72
2022/04/28 04:53:55;;;;;;;9.25;3.80;;;3.80;99.90;;;;;;5096183;28;20035;-72
2022/04/28 04:56:21;;;;;;;8.70;2.63;;;3.70;99.90;;;;;;5096329;28;20095;-72
2022/04/28 04:58:46;;;;;;;13.20;3.72;;;3.80;99.90;;;;;;5096073;28;20047;-73
2022/04/28 05:01:12;;;;;;;11.82;3.15;;;3.90;99.90;;;;;;5095942;28;20396;-72
2022/04/28 05:03:38;;;;;;;7.75;3.08;;;4.00;99.90;;;;;;5094346;28;20094;-72
2022/04/28 05:06:04;;;;;;;15.68;3.28;;;4.00;99.90;;;;;;5095561;28;20028;-72
2022/04/28 05:08:29;;;;;;;16.38;3.17;;;4.10;99.90;;;;;;5094248;28;20032;-72
2022/04/28 05:10:55;;;;;;;12.23;2.83;;;4.10;99.90;;;;;;5095829;28;20066;-73
2022/04/28 05:13:20;;;;;;;9.77;3.95;;;4.10;99.90;;;;;;5095626;28;20489;-72
2022/04/28 05:15:47;;;;;;;8.73;3.40;;;4.20;99.90;;;;;;5095338;28;20039;-72
2022/04/28 05:18:13;;;;;;;10.82;3.78;;;4.30;99.90;;;;;;5094136;28;20035;-72
2022/04/28 05:20:38;;;;;;;15.10;2.92;;;4.40;99.90;;;;;;5095876;28;20059;-72
2022/04/28 05:23:04;;;;;;;7.32;2.83;;;4.50;99.90;;;;;;5093929;28;20036;-72
2022/04/28 05:25:30;;;;;;;9.85;3.03;;;4.60;99.90;;;;;;5093733;28;20032;-72
2022/04/28 05:27:55;;;;;;;10.68;2.90;;;4.70;99.90;;;;;;5095164;28;20025;-72
2022/04/28 05:30:22;;;;;;;11.73;3.42;;;4.80;99.90;;;;;;5093884;28;20495;-72
2022/04/28 05:32:47;;;;;;;10.52;3.47;;;4.90;99.90;;;;;;5095017;28;20060;-72
2022/04/28 05:35:13;;;;;;;9.93;2.80;;;5.00;99.90;;;;;;5095352;28;20063;-72
2022/04/28 05:37:39;;;;;;;10.63;3.10;;;5.10;99.90;;;;;;5094836;28;20024;-72
2022/04/28 05:40:08;;;;;;;10.65;2.67;;;5.20;99.90;;;;;;5095193;28;20032;-72
2022/04/28 05:48:03;;;;;;;9.68;3.63;;;5.50;99.90;;;;;;5095335;28;20039;-72
2022/04/28 05:50:29;;;;;;;10.07;3.25;;;5.60;99.90;;;;;;5094682;28;20028;-72
2022/04/28 05:52:54;;;;;;;7.03;2.60;;;5.70;99.90;;;;;;5094839;28;20439;-72
2022/04/28 05:55:22;;;;;;;10.32;2.85;;;5.80;99.90;;;;;;5094934;28;20050;-72
2022/04/28 05:57:48;;;;;;;11.98;3.22;;;5.90;99.90;;;;;;5093237;28;20040;-72
2022/04/28 06:00:14;;;;;;;9.05;3.10;;;6.00;99.90;;;;;;5094637;28;20039;-72
2022/04/28 06:02:40;;;;;;;10.13;3.40;;;6.10;99.90;;;;;;5094295;28;20401;-72
2022/04/28 06:05:06;;;;;;;9.82;2.83;;;6.20;99.90;;;;;;5094644;28;20473;-72
2022/04/28 06:07:31;;;;;;;6.07;2.10;;;6.30;99.90;;;;;;5095058;28;20043;-72
2022/04/28 06:09:57;;;;;;;9.88;2.65;;;6.50;99.90;;;;;;5095059;28;20467;-72
2022/04/28 06:12:26;;;;;;;9.40;2.47;;;6.60;99.90;;;;;;5094439;28;20016;-72
2022/04/28 06:14:54;;;;;;;8.13;2.22;;;6.70;99.90;;;;;;5094159;28;20132;-72
2022/04/28 06:17:20;;;;;;;10.30;2.77;;;6.80;99.90;;;;;;5094491;28;20525;-74
2022/04/28 06:19:45;;;;;;;8.30;2.30;;;7.00;99.90;;;;;;5093026;28;20034;-72
2022/04/28 06:22:11;;;;;;;13.13;3.05;;;7.10;99.90;;;;;;5094265;28;20107;-73
2022/04/28 06:24:37;;;;;;;5.97;2.15;;;7.20;99.90;;;;;;5094235;28;20547;-72
2022/04/28 06:27:04;;;;;;;10.73;2.30;;;7.30;99.90;;;;;;5092525;28;20115;-72
2022/04/28 06:29:29;;;;;;;13.23;4.07;;;7.40;99.90;;;;;;5092787;28;20035;-72
2022/04/28 06:31:55;;;;;;;8.63;2.33;;;7.50;99.90;;;;;;5094000;28;20028;-73
2022/04/28 06:34:22;;;;;;;7.93;2.15;;;7.60;99.90;;;;;;5094088;28;20447;-72
2022/04/28 06:36:48;;;;;;;6.57;2.35;;;7.80;99.90;;;;;;5092574;28;20036;-72
2022/04/28 06:39:14;;;;;;;15.35;2.67;;;7.90;99.90;;;;;;5094339;28;20032;-72
2022/04/28 06:41:40;;;;;;;8.15;2.53;;;8.00;99.90;;;;;;5094322;28;20032;-72
2022/04/28 06:44:06;;;;;;;8.38;1.92;;;8.10;99.90;;;;;;5094312;28;20060;-72
2022/04/28 06:46:32;;;;;;;6.43;1.73;;;8.30;99.90;;;;;;5092666;28;20520;-72
2022/04/28 06:48:57;;;;;;;4.72;1.33;;;8.40;99.90;;;;;;5092723;28;20020;-72
2022/04/28 06:51:23;;;;;;;5.68;1.33;;;8.50;99.90;;;;;;5094122;28;20028;-72
2022/04/28 06:53:49;;;;;;;7.75;2.20;;;8.60;99.90;;;;;;5094186;28;20028;-72
2022/04/28 06:56:15;;;;;;;2.55;1.02;;;8.70;99.90;;;;;;5093782;28;20032;-72
2022/04/28 06:58:40;;;;;;;5.35;1.75;;;8.80;99.90;;;;;;5093909;28;20113;-72
2022/04/28 07:01:06;;;;;;;11.18;1.67;;;8.90;99.90;;;;;;5093784;28;20032;-72
2022/04/28 07:03:32;;;;;;;13.93;1.95;;;9.00;99.90;;;;;;5093959;28;20361;-72
2022/04/28 07:05:58;;;;;;;5.60;1.30;;;9.20;99.90;;;;;;5096215;28;20046;-72
2022/04/28 07:08:23;;;;;;;12.52;2.83;;;9.30;99.90;;;;;;5097957;28;20028;-72
2022/04/28 07:10:50;;;;;;;5.03;1.27;;;9.50;99.90;;;;;;5097136;28;20020;-73
2022/04/28 07:13:16;;;;;;;4.55;1.20;;;9.60;99.90;;;;;;5097035;28;20051;-73
2022/04/28 07:15:42;;;;;;;8.07;1.52;;;9.70;99.90;;;;;;5097886;28;20079;-73
2022/04/28 07:18:08;;;;;;;7.38;0.80;;;9.70;99.90;;;;;;5098463;28;20500;-73
2022/04/28 07:20:34;;;;;;;3.28;1.40;;;9.80;99.90;;;;;;5098437;28;20025;-73
2022/04/28 07:23:00;;;;;;;5.53;1.33;;;9.80;99.90;;;;;;5097917;28;20077;-73
2022/04/28 07:25:27;;;;;;;7.45;0.90;;;9.90;99.90;;;;;;5112576;22;20020;-88
2022/04/28 07:27:54;;;;;;;8.07;1.10;;;9.90;99.90;;;;;;5085487;28;20040;-90
2022/04/28 07:30:20;;;;;;;6.40;0.90;;;12.90;99.90;;;;;;5086065;28;20029;-87
2022/04/28 07:32:48;;;;;;;10.27;1.63;;;10.20;99.90;;;;;;5084904;28;20035;-88
2022/04/28 07:35:18;;;;;;;12.55;1.30;;;13.20;99.90;;;;;;5084022;28;20035;-88
2022/04/28 07:37:43;;;;;;;6.53;1.50;;;9.60;99.90;;;;;;5083007;28;20040;-87
2022/04/28 07:40:09;;;;;;;7.88;1.38;;;10.00;99.90;;;;;;5082309;28;20028;-88
2022/04/28 07:42:35;;;;;;;3.42;0.90;;;10.50;99.90;;;;;;5099345;28;20039;-87
2022/04/28 07:45:03;;;;;;;7.32;1.38;;;13.10;99.90;;;;;;5081320;28;20032;-89
2022/04/28 07:47:29;;;;;;;4.93;0.80;;;12.90;99.90;;;;;;5081532;28;20480;-88
2022/04/28 07:49:55;;;;;;;8.00;1.13;;;13.00;99.90;;;;;;5082556;28;20036;-90
2022/04/28 07:52:24;;;;;;;3.60;0.30;;;10.50;99.90;;;;;;5082893;28;20032;-89
2022/04/28 07:54:52;;;;;;;3.97;0.98;;;10.40;99.90;;;;;;5082204;28;20036;-90
2022/04/28 07:57:22;;;;;;;1.33;0.53;;;12.10;99.90;;;;;;5117620;28;20015;-86
2022/04/28 08:00:14;;;;;;;7.22;1.58;;;10.60;99.90;;;;;;5104652;28;20286;-88
2022/04/28 08:02:39;;;;;;;2.65;0.68;;;9.20;99.90;;;;;;5076374;28;20080;-90
2022/04/28 08:05:06;;;;;;;4.60;0.70;;;11.10;99.90;;;;;;5104525;28;20062;-89
2022/04/28 08:07:32;;;;;;;4.53;0.93;;;11.60;99.90;;;;;;5118636;28;20052;-92
2022/04/28 08:09:58;;;;;;;2.97;0.68;;;11.70;99.20;;;;;;5089720;28;20066;-90
2022/04/28 08:12:24;;;;;;;4.72;1.20;;;11.40;99.80;;;;;;5105122;28;20032;-90
2022/04/28 08:14:52;;;;;;;3.38;0.80;;;12.20;98.50;;;;;;5085501;28;20077;-90
2022/04/28 08:17:18;;;;;;;7.07;1.00;;;13.60;96.60;;;;;;5082993;28;20477;-91
2022/04/28 08:19:44;;;;;;;8.15;0.90;;;15.00;97.40;;;;;;5083131;28;20353;-91
2022/04/28 08:22:09;;;;;;;1.17;0.20;;;11.60;96.90;;;;;;5100431;28;20476;-90
2022/04/28 08:24:51;;;;;;;;;;;;;;;;;;;;;
2022/04/28 08:27:17;;;;;;;4.53;1.17;;;11.80;95.60;;;;;;5099092;28;20040;-89
2022/04/28 08:29:43;;;;;;;5.72;0.65;;;14.90;95.10;;;;;;5080661;28;20552;-87
2022/04/28 08:32:09;;;;;;;6.32;0.70;;;13.10;91.60;;;;;;5080755;28;20397;-87
2022/04/28 08:34:36;;;;;;;13.00;1.45;;;12.40;91.50;;;;;;5098770;28;20059;-89
2022/04/28 08:37:01;;;;;;;7.90;0.43;;;15.00;95.40;;;;;;5080112;28;20054;-88
2022/04/28 08:39:27;;;;;;;3.33;0.63;;;12.30;92.40;;;;;;5080747;28;20040;-90
2022/04/28 08:41:55;;;;;;;5.13;0.28;;;14.40;90.20;;;;;;5080008;28;20043;-90
2022/04/28 08:44:25;;;;;;;7.70;0.65;;;12.30;91.80;;;;;;5097813;28;20024;-91
2022/04/28 08:46:53;;;;;;;3.97;0.40;;;12.50;91.30;;;;;;5080253;28;20032;-89
2022/04/28 08:49:31;;;;;;;6.15;0.60;;;10.60;88.50;;;;;;5081448;28;20374;-91
2022/04/28 08:51:58;;;;;;;4.22;0.60;;;12.70;90.00;;;;;;5081205;28;20615;-89
2022/04/28 08:54:25;;;;;;;6.03;0.65;;;15.80;91.10;;;;;;5099408;28;20043;-89
2022/04/28 08:56:54;;;;;;;4.65;0.32;;;12.80;90.20;;;;;;5081017;28;20028;-89
2022/04/28 08:59:20;;;;;;;;;;;12.80;87.90;;;;;;5063811;28;20063;-90
2022/04/28 09:05:21;;;;;;;4.13;0.47;;;12.70;85.70;;;;;;5076650;28;20101;-90
2022/04/28 09:08:31;;;;;;;2.90;0.70;;;12.70;85.60;;;;;;5096136;28;20039;-90
2022/04/28 09:11:18;;;;;;;5.18;0.40;;;12.80;86.50;;;;;;5055627;28;20059;-87
2022/04/28 09:14:09;;;;;;;7.63;0.68;;;12.80;84.80;;;;;;5055039;28;20040;-90
2022/04/28 09:16:56;;;;;;;3.22;0.47;;;16.20;87.50;;;;;;5078016;28;20032;-88
2022/04/28 09:19:34;;;;;;;4.45;0.50;;;12.70;90.30;;;;;;5078935;28;20040;-90
2022/04/28 09:22:03;;;;;;;4.03;0.45;;;13.70;87.00;;;;;;5097740;28;20039;-89
2022/04/28 09:24:29;;;;;;;2.47;0.52;;;13.10;84.80;;;;;;5079189;28;20489;-88
2022/04/28 09:26:55;;;;;;;5.38;0.50;;;13.30;83.10;;;;;;5079097;28;20035;-89
2022/04/28 09:29:24;;;;;;;6.05;0.32;;;13.10;83.70;;;;;;5078368;28;20077;-90
2022/04/28 09:31:53;;;;;;;5.10;0.65;;;13.00;83.20;;;;;;5078522;28;20032;-90
2022/04/28 09:34:21;;;;;;;4.63;0.40;;;14.30;81.80;;;;;;5078695;28;20287;-92
2022/04/28 09:36:48;;;;;;;5.90;0.80;;;13.90;83.50;;;;;;5097024;28;20028;-89
2022/04/28 09:42:29;;;;;;;6.50;0.73;;;16.00;84.10;;;;;;5078794;28;20028;-89
2022/04/28 09:44:49;;;;;;;3.63;0.73;;;13.70;81.40;;;;;;5097230;28;20092;-91
2022/04/28 09:47:15;;;;;;;5.03;0.60;;;13.50;81.20;;;;;;5097218;28;20552;-88
2022/04/28 09:49:41;;;;;;;5.30;0.20;;;14.40;79.40;;;;;;5098429;28;20104;-89
2022/04/28 09:52:09;;;;;;;4.43;0.43;;;13.90;80.50;;;;;;5080753;28;20042;-90
2022/04/28 09:54:38;;;;;;;1.17;0.40;;;14.60;78.30;;;;;;5077826;28;20059;-90
2022/04/28 09:57:10;;;;;;;1.67;0.20;;;13.90;78.80;;;;;;5077973;28;20028;-91
2022/04/28 09:59:46;;;;;;;5.88;0.88;;;13.00;76.90;;;;;;5078059;28;20042;-90
2022/04/28 10:02:16;;;;;;;4.78;2.08;;;16.80;78.50;;;;;;5079132;28;20047;-91
2022/04/28 10:04:48;;;;;;;3.38;0.50;;;15.30;78.60;;;;;;5097943;28;20046;-89
2022/04/28 10:07:16;;;;;;;1.40;0.40;;;14.50;77.00;;;;;;5079001;28;20036;-88
2022/04/28 10:09:45;;;;;;;3.28;0.32;;;13.90;76.10;;;;;;5078171;28;20036;-89
2022/04/28 10:12:13;;;;;;;2.35;0.70;;;13.80;75.00;;;;;;5096278;28;20445;-86
2022/04/28 10:14:45;;;;;;;3.07;0.43;;;17.10;76.80;;;;;;5077333;28;20477;-88
2022/04/28 10:18:04;;;;;;;3.85;0.80;;;14.50;75.20;;;;;;5077182;28;20032;-89
2022/04/28 10:33:42;;;;;;;5.88;1.00;;;16.10;73.80;;;;;;5089346;28;20034;-90
2022/04/28 10:36:17;;;;;;;1.40;0.40;;;15.40;69.50;;;;;;5079062;28;20146;-91
2022/04/28 10:39:07;;;;;;;4.95;1.02;;;15.40;72.00;;;;;;5095688;28;20056;-91
2022/04/28 10:41:54;;;;;;;6.45;0.80;;;16.10;70.50;;;;;;5076352;28;20028;-90
2022/04/28 10:44:45;;;;;;;;;;;;;;;;;;;;;
2022/04/28 10:47:22;;;;;;;2.97;0.40;;;15.50;69.70;;;;;;5098933;28;20481;-90
2022/04/28 10:49:54;;;;;;;3.22;0.80;;;16.30;68.20;;;;;;5098632;28;20508;-90
2022/04/28 10:52:27;;;;;;;3.80;0.50;;;16.00;70.50;;;;;;5080330;28;20032;-90
2022/04/28 10:55:00;;;;;;;3.55;0.50;;;16.50;69.80;;;;;;5077343;28;20031;-89
2022/04/28 10:57:31;;;;;;;4.80;0.90;;;17.40;70.40;;;;;;5095780;28;20059;-90
2022/04/28 10:59:57;;;;;;;7.05;0.98;;;16.70;65.30;;;;;;5078996;28;20055;-90
2022/04/28 11:02:23;;;;;;;6.22;1.77;;;16.40;65.90;;;;;;5096859;28;20047;-89
2022/04/28 11:05:30;;;;;;;3.58;0.63;;;16.60;66.00;;;;;;5098294;28;20039;-88
2022/04/28 11:07:58;;;;;;;2.35;0.73;;;17.50;64.30;;;;;;5090024;28;20032;-89
2022/04/28 11:10:24;;;;;;;7.70;2.03;;;20.20;65.90;;;;;;5089530;28;20035;-87
2022/04/28 11:12:54;;;;;;;2.03;0.65;;;17.20;65.80;;;;;;5087940;28;20036;-87
2022/04/28 11:15:21;;;;;;;5.35;1.08;;;16.80;63.20;;;;;;5081339;28;20060;-88
2022/04/28 11:17:47;;;;;;;5.43;1.05;;;16.90;62.40;;;;;;5098995;28;20081;-87
2022/04/28 11:20:15;;;;;;;2.58;0.52;;;17.60;65.20;;;;;;5097822;28;20036;-88
2022/04/28 11:22:46;;;;;;;4.35;1.15;;;18.50;63.30;;;;;;5078689;28;20028;-90
2022/04/28 11:25:20;;;;;;;2.92;0.47;;;17.50;61.50;;;;;;5079641;28;20435;-88
2022/04/28 11:27:49;;;;;;;2.78;0.50;;;17.70;62.50;;;;;;5078130;28;20507;-88
2022/04/28 11:30:21;;;;;;;3.78;0.57;;;18.20;59.60;;;;;;5078006;28;20032;-89
2022/04/28 11:32:58;;;;;;;4.28;0.55;;;14.50;58.50;;;;;;5078429;28;20123;-89
2022/04/28 11:35:40;;;;;;;5.72;1.05;;;17.90;60.80;;;;;;5095733;28;20033;-88
2022/04/28 11:38:42;;;;;;;2.47;0.52;;;18.70;58.80;;;;;;5077097;28;20097;-89
2022/04/28 11:41:11;;;;;;;2.28;0.32;;;18.40;58.00;;;;;;5033450;28;20033;-89
2022/04/28 11:46:53;;;;;;;5.00;1.02;;;18.80;58.00;;;;;;5084902;28;19961;-88
2022/04/28 11:49:33;;;;;;;3.95;0.63;;;19.20;56.70;;;;;;5077396;28;20032;-88
2022/04/28 11:51:59;;;;;;;4.97;0.50;;;19.30;56.80;;;;;;5097059;28;20024;-89
2022/04/28 11:57:36;;;;;;;3.92;0.70;;;18.70;55.00;;;;;;5108932;28;20043;-87
2022/04/28 12:00:25;;;;;;;3.67;0.95;;;18.70;57.10;;;;;;5089758;28;20031;-89
2022/04/28 12:03:08;;;;;;;4.68;0.98;;;17.90;54.50;;;;;;5097848;28;20557;-88
2022/04/28 12:05:35;;;;;;;1.73;0.65;;;19.00;55.40;;;;;;5063864;28;20043;-88
2022/04/28 12:14:22;;;;;;;4.45;0.90;;;21.00;56.30;;;;;;5080321;28;20080;-91
2022/04/28 12:14:34;;;;;;;1.40;0.63;;;22.10;56.20;;;;;;5099675;28;20067;-88
2022/04/28 12:20:21;;;;;;;3.30;0.30;;;23.10;54.30;;;;;;5099053;28;20047;-89
2022/04/28 12:22:50;;;;;;;5.13;1.08;;;20.00;52.40;;;;;;5079861;28;20040;-90
2022/04/28 12:29:28;;;;;;;4.97;0.57;;;19.90;51.20;;;;;;5098454;28;20401;-87
2022/04/28 12:32:15;;;;;;;5.03;0.95;;;20.30;48.30;;;;;;5086905;28;20040;-87
2022/04/28 12:35:02;;;;;;;4.93;1.55;;;20.40;52.70;;;;;;5069274;28;20055;-87
2022/04/28 12:37:42;;;;;;;11.88;1.63;;;23.10;54.30;;;;;;5100823;28;20032;-87
2022/04/28 12:40:49;;;;;;;4.70;0.88;;;20.40;52.00;;;;;;5091336;28;20040;-90
2022/04/28 12:44:00;;;;;;;6.75;1.02;;;18.80;51.30;;;;;;5067368;28;20024;-90
2022/04/28 12:46:45;;;;;;;2.63;0.60;;;20.20;51.00;;;;;;5092318;28;20074;-87
2022/04/28 12:49:20;;;;;;;3.28;1.17;;;20.40;51.50;;;;;;5081152;28;20035;-87
2022/04/28 12:51:52;;;;;;;6.30;1.67;;;20.40;51.90;;;;;;5080855;28;20039;-88
2022/04/28 12:54:23;;;;;;;5.80;0.63;;;24.10;52.40;;;;;;5082831;28;20069;-88
2022/04/28 12:57:02;;;;;;;2.97;1.17;;;24.40;54.50;;;;;;5082410;28;20036;-89
2022/04/28 12:59:38;;;;;;;6.43;1.92;;;21.00;51.50;;;;;;5098204;28;20396;-88
2022/04/28 13:02:04;;;;;;;3.00;1.02;;;21.40;51.20;;;;;;5080898;28;20099;-87
2022/04/28 13:04:35;;;;;;;3.67;1.00;;;21.70;49.40;;;;;;5079180;28;20020;-89
2022/04/28 13:07:01;;;;;;;5.68;1.95;;;23.10;50.10;;;;;;5098664;28;20054;-89
2022/04/28 13:09:32;;;;;;;4.25;1.30;;;22.10;47.10;;;;;;5097792;28;20032;-89
2022/04/28 13:11:58;;;;;;;4.55;0.73;;;21.70;47.70;;;;;;5080060;28;20054;-90
2022/04/28 13:14:38;;;;;;;4.63;0.60;;;23.30;49.20;;;;;;5098619;28;20024;-89
2022/04/28 13:17:03;;;;;;;3.50;0.50;;;22.30;48.50;;;;;;5098488;28;20036;-88
2022/04/28 13:19:29;;;;;;;2.78;1.10;;;22.90;48.70;;;;;;5098284;28;20054;-89
2022/04/28 13:22:02;;;;;;;2.88;1.23;;;21.90;47.40;;;;;;5079472;28;20561;-90
2022/04/28 13:24:28;;;;;;;4.60;0.90;;;22.20;47.10;;;;;;5078970;28;20032;-88
2022/04/28 13:27:09;;;;;;;4.93;1.05;;;23.60;49.30;;;;;;5079660;28;20086;-88
2022/04/28 13:29:39;;;;;;;6.35;0.95;;;23.50;49.30;;;;;;5080560;28;20028;-89
2022/04/28 13:32:07;;;;;;;1.67;1.05;;;23.00;47.00;;;;;;5079690;28;20035;-88
2022/04/28 13:34:33;;;;;;;2.33;0.63;;;22.50;48.70;;;;;;5079389;28;20063;-88
2022/04/28 13:36:59;;;;;;;5.28;0.80;;;22.90;48.60;;;;;;5080023;28;20458;-87
2022/04/28 13:39:24;;;;;;;3.53;1.67;;;23.40;47.10;;;;;;5098477;28;20039;-87
2022/04/28 13:41:50;;;;;;;5.55;1.13;;;22.90;45.50;;;;;;5081478;28;20036;-87
2022/04/28 13:44:17;;;;;;;3.53;0.60;;;24.50;47.00;;;;;;5079533;28;20561;-87
2022/04/28 13:46:43;;;;;;;3.28;1.40;;;23.20;46.60;;;;;;5097243;28;20032;-89
2022/04/28 13:49:09;;;;;;;4.45;1.13;;;23.20;45.00;;;;;;5078930;28;20035;-89
2022/04/28 13:51:34;;;;;;;6.43;1.25;;;23.30;45.30;;;;;;5081182;28;20082;-89
2022/04/28 13:54:00;;;;;;;3.00;0.93;;;24.30;47.10;;;;;;5080056;28;20077;-89
2022/04/28 13:56:29;;;;;;;1.58;0.55;;;23.20;45.90;;;;;;5079272;28;20047;-89